Hines Creek, Canada
Current Conditions -  °F | °C
As of 5:00 PM on Wednesday 28 Jan 2015 (Local Time) from CYPE Reporting Station
Overcast Overcast  
Wind Chill: -10°   Ceiling: 4000
Heat Index:   Visibility: 15mi
Dew Point: -6°   Wind: 6mph
Humidity: 72%   Direction: 60°ENE
Pressure: 30.4"   Gusts: NA
Location:  56.23°N, 118.6°W
Report Text: CYPE 290000Z 06005KT 15SM OVC040 M17/M21 A3040 RMK SC8 SLP349
Loading
Personal Weather Stations






























Interactive Weather Map New forecast layout! Learn more

10-Day Weather Forecast

Advertisements
Track Severe Weather on mobile